Time;durP1;ratioP1;P1;durP2;ratioP2;P2;SDS_P1;SDS_P2;PMS_P1;PMS_P2;Temp;Humidity;BMP_temperature;BMP_pressure;BME280_temperature;BME280_humidity;BME280_pressure;Samples;Min_cycle;Max_cycle;Signal;HPM_P1;HPM_P2
2022/03/02 00:00:30;;;;;;;27.73;16.17;;;1.00;99.90;;;;;;5050542;28;20587;-55
2022/03/02 00:02:56;;;;;;;28.92;15.30;;;1.10;99.90;;;;;;5051259;28;20431;-55
2022/03/02 00:05:24;;;;;;;30.50;15.60;;;1.10;99.90;;;;;;5050505;28;20396;-55
2022/03/02 00:07:50;;;;;;;26.88;14.95;;;1.20;99.90;;;;;;5051272;28;20603;-55
2022/03/02 00:10:16;;;;;;;26.90;14.65;;;1.20;99.90;;;;;;5050049;28;20385;-55
2022/03/02 00:12:41;;;;;;;26.57;14.30;;;1.20;99.90;;;;;;5050945;28;20392;-55
2022/03/02 00:15:07;;;;;;;27.30;15.10;;;1.10;99.90;;;;;;5051100;28;20937;-57
2022/03/02 00:17:33;;;;;;;30.33;14.70;;;1.10;99.90;;;;;;5050254;28;20392;-55
2022/03/02 00:19:58;;;;;;;26.25;14.05;;;1.00;99.90;;;;;;5051071;28;20497;-55
2022/03/02 00:22:24;;;;;;;27.93;14.57;;;1.00;99.90;;;;;;5050015;28;20412;-55
2022/03/02 00:24:51;;;;;;;27.05;14.30;;;1.20;99.90;;;;;;5049902;28;20756;-55
2022/03/02 00:27:23;;;;;;;24.25;13.45;;;1.10;99.90;;;;;;5050354;28;20832;-55
2022/03/02 00:29:49;;;;;;;29.13;14.10;;;1.10;99.90;;;;;;5049815;28;20736;-55
2022/03/02 00:32:14;;;;;;;28.05;14.40;;;1.20;99.90;;;;;;5050108;28;20463;-55
2022/03/02 00:34:41;;;;;;;26.67;14.17;;;1.30;99.90;;;;;;5051015;28;20421;-55
2022/03/02 00:37:06;;;;;;;29.58;14.50;;;1.30;99.90;;;;;;5050811;28;20410;-55
2022/03/02 00:39:33;;;;;;;25.48;13.93;;;2.30;99.90;;;;;;5050092;28;20551;-55
2022/03/02 00:41:59;;;;;;;27.08;14.85;;;1.40;99.90;;;;;;5050944;28;20428;-55
2022/03/02 00:44:24;;;;;;;26.17;14.80;;;1.40;99.90;;;;;;5049874;28;20409;-55
2022/03/02 00:46:50;;;;;;;32.20;15.30;;;1.40;99.90;;;;;;5050631;28;20960;-55
2022/03/02 00:49:16;;;;;;;26.23;13.50;;;1.30;99.90;;;;;;5049491;28;20797;-55
2022/03/02 00:51:42;;;;;;;25.40;14.05;;;1.30;99.90;;;;;;5050596;28;20407;-55
2022/03/02 00:54:09;;;;;;;32.78;15.77;;;1.40;99.90;;;;;;5032662;28;20435;-55
2022/03/02 00:56:35;;;;;;;28.88;16.40;;;1.50;99.90;;;;;;5049745;28;20381;-54
2022/03/02 00:59:00;;;;;;;28.13;16.10;;;1.80;99.90;;;;;;5049716;28;21171;-55
2022/03/02 01:01:26;;;;;;;30.60;15.50;;;1.90;99.90;;;;;;5061012;28;20406;-56
2022/03/02 01:03:52;;;;;;;29.98;15.05;;;1.80;99.90;;;;;;5050264;28;20399;-55
2022/03/02 01:06:18;;;;;;;28.83;15.15;;;2.70;99.90;;;;;;5049250;28;20796;-55
2022/03/02 01:08:43;;;;;;;27.30;14.00;;;1.90;99.90;;;;;;5050422;28;20377;-56
2022/03/02 01:11:09;;;;;;;27.37;14.53;;;1.80;99.90;;;;;;5049988;28;20432;-56
2022/03/02 01:13:35;;;;;;;29.13;15.02;;;1.60;99.90;;;;;;5049959;28;20374;-54
2022/03/02 01:16:01;;;;;;;26.58;15.05;;;1.50;99.90;;;;;;5050170;28;20424;-54
2022/03/02 01:18:27;;;;;;;25.92;14.35;;;1.40;99.90;;;;;;5049112;28;20424;-55
2022/03/02 01:20:52;;;;;;;29.60;15.23;;;1.50;99.90;;;;;;5049684;28;20397;-54
2022/03/02 01:23:18;;;;;;;27.15;14.68;;;1.40;99.90;;;;;;5049338;28;20509;-54
2022/03/02 01:25:44;;;;;;;29.73;14.80;;;1.20;99.90;;;;;;5032127;28;20425;-54
2022/03/02 01:28:10;;;;;;;27.27;14.13;;;2.30;99.90;;;;;;5049280;28;20396;-56
2022/03/02 01:30:35;;;;;;;30.02;14.65;;;1.30;99.90;;;;;;5049656;28;20385;-54
2022/03/02 01:33:01;;;;;;;26.60;14.30;;;1.30;99.90;;;;;;5049652;28;20444;-54
2022/03/02 01:35:27;;;;;;;26.67;14.20;;;1.30;99.90;;;;;;5049023;28;20417;-54
2022/03/02 01:37:52;;;;;;;29.33;14.20;;;1.30;99.90;;;;;;5049968;28;20432;-54
2022/03/02 01:40:18;;;;;;;25.37;14.00;;;1.60;99.90;;;;;;5048801;28;20392;-55
2022/03/02 01:42:44;;;;;;;24.38;14.10;;;1.30;99.90;;;;;;5049659;28;20431;-54
2022/03/02 01:45:13;;;;;;;29.55;14.27;;;1.20;99.90;;;;;;5049391;28;20377;-56
2022/03/02 01:47:40;;;;;;;25.52;14.00;;;2.30;99.90;;;;;;5049495;28;20436;-54
2022/03/02 01:50:09;;;;;;;26.90;14.25;;;2.20;99.90;;;;;;5049553;28;20384;-55
2022/03/02 01:52:34;;;;;;;23.15;13.30;;;1.30;99.90;;;;;;5048670;28;20727;-54
2022/03/02 01:55:00;;;;;;;26.17;13.97;;;1.20;99.90;;;;;;5049566;28;20374;-54
2022/03/02 01:57:27;;;;;;;26.45;13.88;;;1.30;99.90;;;;;;5048224;28;20721;-54
2022/03/02 01:59:53;;;;;;;28.73;14.48;;;1.20;99.90;;;;;;5049470;28;20423;-54
2022/03/02 02:02:19;;;;;;;25.65;13.85;;;1.30;99.90;;;;;;5048837;28;20389;-54
2022/03/02 02:04:45;;;;;;;27.13;15.10;;;1.20;99.90;;;;;;5031373;28;20449;-54
2022/03/02 02:07:11;;;;;;;27.60;14.70;;;1.10;99.90;;;;;;5049311;28;20435;-56
2022/03/02 02:09:36;;;;;;;30.63;15.30;;;0.90;99.90;;;;;;5048926;28;20377;-54
2022/03/02 02:12:02;;;;;;;27.73;14.68;;;1.00;99.90;;;;;;5051210;28;20468;-54
2022/03/02 02:14:28;;;;;;;28.90;15.00;;;0.90;99.90;;;;;;5052963;28;20377;-54
2022/03/02 02:16:54;;;;;;;28.70;13.90;;;0.90;99.90;;;;;;5053276;28;20417;-54
2022/03/02 02:19:20;;;;;;;28.92;14.60;;;0.80;99.90;;;;;;5052024;28;20965;-54
2022/03/02 02:21:48;;;;;;;26.45;15.07;;;0.90;99.90;;;;;;5053028;28;20484;-54
2022/03/02 02:24:15;;;;;;;31.98;14.77;;;0.70;99.90;;;;;;5052686;28;20396;-56
2022/03/02 02:26:41;;;;;;;28.48;14.50;;;0.70;99.90;;;;;;5053189;28;20373;-54
2022/03/02 02:29:07;;;;;;;32.70;15.50;;;0.70;99.90;;;;;;5053211;28;20446;-54
2022/03/02 02:31:33;;;;;;;25.40;14.52;;;1.20;99.90;;;;;;5034468;28;20434;-54
2022/03/02 02:33:59;;;;;;;28.45;15.43;;;0.70;99.90;;;;;;5053098;28;21106;-54
2022/03/02 02:36:25;;;;;;;29.17;14.32;;;0.50;99.90;;;;;;5052272;28;20388;-54
2022/03/02 02:38:51;;;;;;;29.15;15.00;;;1.50;99.90;;;;;;5053033;28;20444;-54
2022/03/02 02:41:18;;;;;;;27.35;14.55;;;0.50;99.90;;;;;;5052374;28;20409;-54
2022/03/02 02:43:44;;;;;;;31.60;14.57;;;0.30;99.90;;;;;;5052912;28;20397;-55
2022/03/02 02:46:11;;;;;;;27.30;14.68;;;1.20;99.90;;;;;;5053037;28;20862;-54
2022/03/02 02:48:37;;;;;;;27.55;14.18;;;0.50;99.90;;;;;;5052438;28;20539;-54
2022/03/02 02:51:04;;;;;;;28.35;15.55;;;0.50;99.90;;;;;;5059258;28;20401;-55
2022/03/02 02:53:31;;;;;;;26.90;14.20;;;0.50;99.90;;;;;;5066131;28;20447;-54
2022/03/02 02:55:56;;;;;;;27.73;14.55;;;0.50;99.90;;;;;;5061784;28;20372;-54
2022/03/02 02:58:22;;;;;;;29.75;15.50;;;0.30;99.90;;;;;;5071982;28;20411;-54
2022/03/02 03:00:52;;;;;;;28.75;14.80;;;0.20;99.90;;;;;;5072590;28;20465;-54
2022/03/02 03:03:18;;;;;;;28.55;16.10;;;0.10;99.90;;;;;;5071997;28;20470;-54
2022/03/02 03:05:44;;;;;;;30.10;14.15;;;0.10;99.90;;;;;;5054645;28;20423;-55
2022/03/02 03:08:13;;;;;;;28.88;15.15;;;0.40;99.90;;;;;;5066763;28;20459;-54
2022/03/02 03:10:40;;;;;;;27.17;14.20;;;0.20;99.90;;;;;;5060840;28;21072;-54
2022/03/02 03:13:07;;;;;;;27.20;15.25;;;0.20;99.90;;;;;;5052411;28;20390;-55
2022/03/02 03:15:34;;;;;;;23.83;13.35;;;0.10;99.90;;;;;;5051582;28;20457;-54
2022/03/02 03:18:01;;;;;;;27.58;14.50;;;0.10;99.90;;;;;;5051991;28;20417;-54
2022/03/02 03:20:27;;;;;;;28.10;14.20;;;0.10;99.90;;;;;;5051512;28;20447;-55
2022/03/02 03:22:55;;;;;;;30.73;15.48;;;0.00;99.90;;;;;;5033985;28;20898;-53
2022/03/02 03:25:22;;;;;;;29.00;15.75;;;0.00;99.90;;;;;;5051519;28;20467;-53
2022/03/02 03:27:49;;;;;;;31.80;16.15;;;0.00;99.90;;;;;;5052096;28;20851;-54
2022/03/02 03:30:20;;;;;;;29.25;15.70;;;-0.10;99.90;;;;;;5051720;28;20419;-56
2022/03/02 03:32:46;;;;;;;30.48;15.90;;;0.00;99.90;;;;;;5070044;28;20396;-54
2022/03/02 03:35:13;;;;;;;26.55;15.00;;;0.50;99.90;;;;;;5071892;28;20430;-56
2022/03/02 03:37:40;;;;;;;27.17;15.20;;;-0.30;99.90;;;;;;5071655;28;20384;-54
2022/03/02 03:40:08;;;;;;;29.92;15.45;;;-0.20;99.90;;;;;;5071852;28;20387;-54
2022/03/02 03:42:33;;;;;;;30.90;15.43;;;-0.20;99.90;;;;;;5070646;28;21030;-54
2022/03/02 03:44:59;;;;;;;28.83;15.23;;;-0.40;99.90;;;;;;5071358;28;20403;-54
2022/03/02 03:47:24;;;;;;;29.13;15.40;;;-0.40;99.90;;;;;;5071128;28;20912;-54
2022/03/02 03:49:50;;;;;;;26.53;15.10;;;-0.50;99.90;;;;;;5069713;28;20442;-53
2022/03/02 03:52:16;;;;;;;26.17;14.60;;;-0.60;99.90;;;;;;5068486;28;20402;-57
2022/03/02 03:54:41;;;;;;;28.85;15.30;;;-0.60;99.90;;;;;;5071332;28;20436;-54
2022/03/02 03:57:07;;;;;;;26.80;15.17;;;-0.60;99.90;;;;;;5071547;28;20372;-53
2022/03/02 03:59:33;;;;;;;27.98;14.80;;;-0.50;99.90;;;;;;5070705;28;20426;-53
2022/03/02 04:01:59;;;;;;;28.05;15.00;;;-0.50;99.90;;;;;;5071447;28;20376;-53
2022/03/02 04:04:25;;;;;;;28.67;14.90;;;-0.40;99.90;;;;;;5068632;28;20396;-54
2022/03/02 04:06:51;;;;;;;30.30;14.80;;;0.70;99.90;;;;;;5052629;28;20413;-54
2022/03/02 04:09:17;;;;;;;31.33;15.27;;;-0.20;99.90;;;;;;5050506;28;20389;-56
2022/03/02 04:11:43;;;;;;;29.13;14.87;;;-0.10;99.90;;;;;;5050714;28;20393;-54
2022/03/02 04:14:09;;;;;;;32.58;14.60;;;0.00;99.90;;;;;;5050712;28;20386;-54
2022/03/02 04:16:35;;;;;;;30.23;16.15;;;0.00;99.90;;;;;;5050486;28;20451;-54
2022/03/02 04:19:01;;;;;;;29.13;14.60;;;-0.10;99.90;;;;;;5067304;28;20431;-54
2022/03/02 04:21:26;;;;;;;29.88;15.20;;;-0.20;99.90;;;;;;5070360;28;20480;-54
2022/03/02 04:23:52;;;;;;;28.52;15.93;;;-0.30;99.90;;;;;;5071004;28;20399;-53
2022/03/02 04:26:18;;;;;;;30.25;14.23;;;-0.30;99.90;;;;;;5070251;28;20377;-55
2022/03/02 04:28:44;;;;;;;29.08;15.18;;;-0.30;99.90;;;;;;5070591;28;20441;-54
2022/03/02 04:31:10;;;;;;;26.60;14.60;;;-0.40;99.90;;;;;;5068942;28;20400;-54
2022/03/02 04:33:36;;;;;;;27.47;14.03;;;-0.30;99.90;;;;;;5069810;28;20448;-55
2022/03/02 04:36:03;;;;;;;27.17;13.73;;;-0.40;99.90;;;;;;5070145;28;20853;-54
2022/03/02 04:38:29;;;;;;;26.30;13.80;;;-0.30;99.90;;;;;;5069980;28;20506;-54
2022/03/02 04:40:54;;;;;;;24.97;13.10;;;-0.30;99.90;;;;;;5058180;28;20932;-54
2022/03/02 04:43:20;;;;;;;24.50;13.10;;;-0.30;99.90;;;;;;5058383;28;20384;-54
2022/03/02 04:45:45;;;;;;;25.77;13.13;;;-0.30;99.90;;;;;;5070537;28;20384;-54
2022/03/02 04:48:11;;;;;;;27.10;13.17;;;-0.20;99.90;;;;;;5070917;28;20402;-55
2022/03/02 04:50:38;;;;;;;27.63;13.60;;;-0.20;99.90;;;;;;5067721;28;20404;-55
2022/03/02 04:53:04;;;;;;;25.77;13.27;;;-0.10;99.90;;;;;;5070519;28;20392;-54
2022/03/02 04:55:30;;;;;;;24.02;13.20;;;0.80;99.90;;;;;;5069984;28;20445;-54
2022/03/02 04:58:01;;;;;;;26.30;13.90;;;-0.10;99.90;;;;;;5070095;28;20434;-54
2022/03/02 05:00:32;;;;;;;30.35;13.05;;;-0.10;99.90;;;;;;5069691;28;20426;-54
2022/03/02 05:02:59;;;;;;;25.80;13.73;;;-0.10;99.90;;;;;;5052586;28;20392;-54
2022/03/02 05:05:26;;;;;;;24.83;13.68;;;-0.20;99.90;;;;;;5069871;28;20396;-54
2022/03/02 05:07:52;;;;;;;28.30;14.00;;;-0.10;99.90;;;;;;5070025;28;20478;-54
2022/03/02 05:10:19;;;;;;;26.73;14.13;;;-0.20;99.90;;;;;;5069481;28;20422;-54
2022/03/02 05:12:45;;;;;;;28.50;14.32;;;0.10;99.90;;;;;;5060836;28;20384;-54
2022/03/02 05:15:12;;;;;;;28.67;14.60;;;-0.30;99.90;;;;;;5050842;28;20377;-54
2022/03/02 05:17:39;;;;;;;28.67;13.90;;;-0.40;99.90;;;;;;5064146;28;20416;-54
2022/03/02 05:20:06;;;;;;;26.05;13.57;;;-0.10;99.90;;;;;;5070352;28;20517;-55
2022/03/02 05:22:33;;;;;;;27.85;14.38;;;-0.40;99.90;;;;;;5051683;28;20409;-54
2022/03/02 05:24:58;;;;;;;27.67;14.50;;;-0.40;99.90;;;;;;5053290;28;20387;-54
2022/03/02 05:27:24;;;;;;;27.63;14.45;;;-0.30;99.90;;;;;;5065463;28;20577;-54
2022/03/02 05:29:50;;;;;;;26.45;13.38;;;-0.50;99.90;;;;;;5069649;28;20414;-54
2022/03/02 05:32:16;;;;;;;31.98;13.60;;;-0.50;99.90;;;;;;5068773;28;20387;-56
2022/03/02 05:34:42;;;;;;;25.08;13.95;;;-0.40;99.90;;;;;;5069002;28;20375;-54
2022/03/02 05:37:08;;;;;;;23.48;12.63;;;-0.30;99.90;;;;;;5069078;28;20517;-55
2022/03/02 05:39:34;;;;;;;23.98;13.35;;;-0.30;99.90;;;;;;5068179;28;20502;-54
2022/03/02 05:41:59;;;;;;;31.02;13.60;;;-0.20;99.90;;;;;;5069676;28;20384;-54
2022/03/02 05:44:25;;;;;;;26.47;13.80;;;-0.20;99.90;;;;;;5068395;28;20896;-54
2022/03/02 05:46:51;;;;;;;22.17;13.43;;;0.00;99.90;;;;;;5068882;28;20887;-54
2022/03/02 05:49:17;;;;;;;24.55;12.52;;;-0.20;99.90;;;;;;5068553;28;20396;-56
2022/03/02 05:51:43;;;;;;;28.10;14.27;;;-0.10;99.90;;;;;;5069067;28;20388;-54
2022/03/02 05:54:10;;;;;;;28.00;13.60;;;-0.20;99.90;;;;;;5069165;28;20379;-54
2022/03/02 05:56:37;;;;;;;25.33;13.23;;;-0.10;99.90;;;;;;5067963;28;20686;-54
2022/03/02 05:59:07;;;;;;;26.35;12.60;;;0.90;99.90;;;;;;5069406;28;20422;-54
2022/03/02 06:01:34;;;;;;;27.60;14.23;;;0.20;99.90;;;;;;5068742;28;20438;-54
2022/03/02 06:04:01;;;;;;;25.20;12.88;;;0.10;99.90;;;;;;5069740;28;20422;-54
2022/03/02 06:06:29;;;;;;;24.45;12.80;;;0.60;99.90;;;;;;5065061;28;20403;-54
2022/03/02 06:08:55;;;;;;;26.05;12.75;;;0.20;99.90;;;;;;5060026;28;20423;-54
2022/03/02 06:11:21;;;;;;;25.95;13.10;;;0.80;99.90;;;;;;5063564;28;20376;-55
2022/03/02 06:13:47;;;;;;;25.00;13.50;;;1.20;99.90;;;;;;5062417;28;20383;-54
2022/03/02 06:16:13;;;;;;;25.25;13.45;;;0.40;99.90;;;;;;5068705;28;20380;-54
2022/03/02 06:18:39;;;;;;;24.73;13.50;;;0.40;99.90;;;;;;5063954;28;20893;-55
2022/03/02 06:21:06;;;;;;;23.80;12.70;;;0.50;99.90;;;;;;5069454;28;20375;-55
2022/03/02 06:23:32;;;;;;;22.27;12.25;;;0.50;99.90;;;;;;5066189;28;20403;-54
2022/03/02 06:25:58;;;;;;;27.27;14.07;;;0.60;99.90;;;;;;5069447;28;20372;-54
2022/03/02 06:28:25;;;;;;;26.80;13.40;;;0.70;99.90;;;;;;5068431;28;20391;-54
2022/03/02 06:30:51;;;;;;;25.48;13.13;;;0.70;99.90;;;;;;5061333;28;20445;-54
2022/03/02 06:33:18;;;;;;;23.95;12.63;;;0.70;99.90;;;;;;5066774;28;20501;-56
2022/03/02 06:35:45;;;;;;;26.75;13.75;;;0.90;99.90;;;;;;5067708;28;20376;-55
2022/03/02 06:38:11;;;;;;;25.77;13.20;;;0.90;99.90;;;;;;5067662;28;20411;-54
2022/03/02 06:40:37;;;;;;;24.53;13.50;;;0.90;99.90;;;;;;5068246;28;20940;-54
2022/03/02 06:43:11;;;;;;;25.50;14.20;;;0.90;99.90;;;;;;5069018;28;20392;-54
2022/03/02 06:45:57;;;;;;;26.48;13.85;;;1.00;99.90;;;;;;5067781;28;20402;-53
2022/03/02 06:48:32;;;;;;;24.50;14.32;;;1.30;99.90;;;;;;5066620;28;20931;-55
2022/03/02 06:51:00;;;;;;;29.80;15.05;;;1.20;99.90;;;;;;5063455;28;20411;-54
2022/03/02 06:53:35;;;;;;;25.98;14.38;;;1.30;99.90;;;;;;5067241;28;20390;-54
2022/03/02 06:56:04;;;;;;;27.98;14.60;;;1.50;99.90;;;;;;5066169;28;20375;-54
2022/03/02 06:58:51;;;;;;;26.05;15.30;;;1.50;99.90;;;;;;5058895;28;20482;-53
2022/03/02 07:01:40;;;;;;;26.73;14.60;;;1.60;99.90;;;;;;5058733;28;20442;-55
2022/03/02 07:04:06;;;;;;;26.48;14.80;;;2.10;99.90;;;;;;5062849;28;21005;-54
2022/03/02 07:06:32;;;;;;;28.92;14.50;;;1.40;99.90;;;;;;5065003;28;20403;-54
2022/03/02 07:08:57;;;;;;;29.00;14.80;;;1.60;99.90;;;;;;5071795;28;20459;-55
2022/03/02 07:11:25;;;;;;;26.23;14.20;;;2.20;99.90;;;;;;5070487;28;20430;-55
2022/03/02 07:13:51;;;;;;;27.45;14.20;;;1.70;99.90;;;;;;5069661;28;20399;-56
2022/03/02 07:16:18;;;;;;;26.02;14.07;;;1.80;99.90;;;;;;5067899;28;20965;-57
2022/03/02 07:18:44;;;;;;;27.77;14.60;;;1.90;99.90;;;;;;5066026;28;20575;-55
2022/03/02 07:21:12;;;;;;;28.00;14.50;;;1.90;99.90;;;;;;5069440;28;20776;-55
2022/03/02 07:23:59;;;;;;;28.85;15.23;;;1.90;99.90;;;;;;5066450;28;20408;-57
2022/03/02 07:26:27;;;;;;;29.33;14.65;;;2.20;99.90;;;;;;5069862;28;20391;-55
2022/03/02 07:28:54;;;;;;;29.30;15.30;;;2.10;99.90;;;;;;5070207;28;20444;-55
2022/03/02 07:31:21;;;;;;;28.83;15.10;;;2.00;99.90;;;;;;5070040;28;20406;-57
2022/03/02 07:33:47;;;;;;;30.20;15.52;;;2.20;99.90;;;;;;5055378;28;20385;-55
2022/03/02 07:36:17;;;;;;;29.52;15.25;;;2.00;99.90;;;;;;5054434;28;20722;-56
2022/03/02 07:38:44;;;;;;;26.15;14.57;;;2.20;99.90;;;;;;5063325;28;20430;-55
2022/03/02 07:41:10;;;;;;;30.73;15.50;;;2.20;99.90;;;;;;5065041;28;20435;-56
2022/03/02 07:43:38;;;;;;;28.08;14.70;;;2.10;99.90;;;;;;5071397;28;20453;-55
2022/03/02 07:46:09;;;;;;;30.88;14.98;;;2.10;99.90;;;;;;5071272;28;20380;-55
2022/03/02 07:48:36;;;;;;;27.95;14.80;;;2.00;99.90;;;;;;5070558;28;20491;-55
2022/03/02 07:51:04;;;;;;;29.25;15.48;;;2.00;99.90;;;;;;5071405;28;20386;-55
2022/03/02 07:54:00;;;;;;;29.15;14.43;;;2.20;99.90;;;;;;5070592;28;20430;-55
2022/03/02 07:56:31;;;;;;;26.55;15.18;;;3.30;99.90;;;;;;5069250;28;20391;-56
2022/03/02 07:59:07;;;;;;;26.25;14.63;;;2.30;99.90;;;;;;5071144;28;20861;-56
2022/03/02 08:01:35;;;;;;;27.55;14.80;;;2.40;99.90;;;;;;5070288;28;20380;-55
2022/03/02 08:04:07;;;;;;;27.40;14.52;;;2.60;99.90;;;;;;5071284;28;20813;-55
2022/03/02 08:06:35;;;;;;;28.27;14.95;;;3.50;99.90;;;;;;5070476;28;20379;-55
2022/03/02 08:09:03;;;;;;;31.70;15.60;;;2.60;99.90;;;;;;5070389;28;20376;-56
2022/03/02 08:11:32;;;;;;;28.30;14.60;;;2.90;99.90;;;;;;5070507;28;20379;-56
2022/03/02 08:13:59;;;;;;;29.73;15.48;;;3.00;99.90;;;;;;5070983;28;20853;-57
2022/03/02 08:16:29;;;;;;;29.13;15.40;;;3.10;99.90;;;;;;5070406;28;20380;-55
2022/03/02 08:18:56;;;;;;;26.38;15.77;;;3.20;99.90;;;;;;5070893;28;20411;-56
2022/03/02 08:21:23;;;;;;;27.58;15.60;;;3.60;99.90;;;;;;5070046;28;20403;-56
2022/03/02 08:23:51;;;;;;;27.55;15.63;;;3.40;99.90;;;;;;5074306;28;20392;-55
2022/03/02 08:26:20;;;;;;;28.63;15.20;;;3.40;99.90;;;;;;5084814;28;20402;-58
2022/03/02 08:28:46;;;;;;;28.05;14.75;;;3.30;99.90;;;;;;5068401;28;20444;-56
2022/03/02 08:31:14;;;;;;;28.63;15.77;;;3.60;99.90;;;;;;5072530;28;20415;-55
2022/03/02 08:33:41;;;;;;;29.92;14.43;;;3.50;99.90;;;;;;5067471;28;20424;-56
2022/03/02 08:36:09;;;;;;;28.52;15.65;;;3.60;99.90;;;;;;5069229;28;20457;-56
2022/03/02 08:38:40;;;;;;;28.48;15.55;;;3.90;99.90;;;;;;5068615;28;20443;-55
2022/03/02 08:41:07;;;;;;;27.05;15.13;;;3.80;99.90;;;;;;5051963;28;20472;-56
2022/03/02 08:43:37;;;;;;;27.15;15.20;;;4.20;99.90;;;;;;5068855;28;20390;-56
2022/03/02 08:46:04;;;;;;;26.17;15.75;;;4.60;99.90;;;;;;5070137;28;20853;-55
2022/03/02 08:48:30;;;;;;;26.45;15.30;;;4.70;99.90;;;;;;5068808;28;20888;-56
2022/03/02 08:50:59;;;;;;;28.60;15.67;;;4.90;99.90;;;;;;5069834;28;20380;-55
2022/03/02 08:53:25;;;;;;;28.98;16.05;;;5.10;99.90;;;;;;5068412;28;20795;-53
2022/03/02 08:55:53;;;;;;;28.90;15.33;;;5.60;99.90;;;;;;5069781;28;20845;-54
2022/03/02 08:58:19;;;;;;;26.40;16.10;;;5.40;99.90;;;;;;5068601;28;20469;-56
2022/03/02 09:00:45;;;;;;;26.83;14.80;;;5.50;99.90;;;;;;5069280;28;20375;-54
2022/03/02 09:03:15;;;;;;;31.00;15.73;;;5.70;99.90;;;;;;5069440;28;20777;-54
2022/03/02 09:05:42;;;;;;;29.48;14.40;;;5.90;99.90;;;;;;5068587;28;20416;-54
2022/03/02 09:08:08;;;;;;;26.60;16.20;;;6.40;99.90;;;;;;5068914;28;20386;-54
2022/03/02 09:10:37;;;;;;;27.25;16.02;;;6.80;99.90;;;;;;5068847;28;20380;-54
2022/03/02 09:13:03;;;;;;;29.23;15.25;;;7.10;99.90;;;;;;5068806;28;20940;-55
2022/03/02 09:15:29;;;;;;;28.67;15.35;;;7.30;99.90;;;;;;5068280;28;20391;-55
2022/03/02 09:17:56;;;;;;;27.63;16.00;;;7.30;99.90;;;;;;5069152;28;20423;-55
2022/03/02 09:20:26;;;;;;;28.53;15.07;;;7.20;99.90;;;;;;5068257;28;20475;-56
2022/03/02 09:22:52;;;;;;;25.80;15.30;;;7.60;99.90;;;;;;5004817;28;1825031;-55
2022/03/02 09:25:18;;;;;;;23.70;14.50;;;7.60;99.90;;;;;;5069895;28;20391;-57
2022/03/02 09:27:46;;;;;;;23.30;13.95;;;6.90;99.90;;;;;;5069703;28;20375;-55
2022/03/02 09:30:12;;;;;;;25.70;14.77;;;6.40;99.90;;;;;;5070226;28;20483;-55
2022/03/02 09:32:42;;;;;;;27.55;14.68;;;6.30;99.90;;;;;;5069172;28;20431;-55
2022/03/02 09:35:13;;;;;;;26.73;14.75;;;6.50;99.90;;;;;;5070108;28;20878;-53
2022/03/02 09:37:49;;;;;;;30.05;15.93;;;7.10;99.90;;;;;;5068593;28;20375;-56
2022/03/02 09:40:29;;;;;;;28.73;14.98;;;7.30;99.90;;;;;;5069402;28;20857;-55
2022/03/02 09:42:56;;;;;;;25.63;15.38;;;7.50;99.90;;;;;;5069300;28;20398;-55
2022/03/02 09:45:23;;;;;;;25.58;14.68;;;7.30;99.90;;;;;;5068651;28;20794;-57
2022/03/02 09:47:57;;;;;;;28.08;14.82;;;7.00;99.90;;;;;;5069621;28;20438;-54
2022/03/02 09:50:33;;;;;;;27.67;15.13;;;7.20;99.90;;;;;;5068763;28;20392;-55
2022/03/02 09:53:12;;;;;;;30.02;15.23;;;7.50;99.90;;;;;;5069229;28;20925;-55
2022/03/02 09:55:40;;;;;;;28.33;17.60;;;8.10;99.20;;;;;;5050855;28;21024;-55
2022/03/02 09:58:06;;;;;;;24.38;14.95;;;8.40;99.00;;;;;;5069069;28;20846;-55
2022/03/02 10:00:32;;;;;;;29.77;15.35;;;9.10;98.50;;;;;;5068774;28;20419;-55
2022/03/02 10:03:00;;;;;;;26.07;15.83;;;9.30;97.70;;;;;;5069022;28;20449;-56
2022/03/02 10:05:31;;;;;;;24.98;14.88;;;9.80;96.60;;;;;;5050279;28;20482;-55
2022/03/02 10:07:59;;;;;;;24.45;14.20;;;10.20;95.40;;;;;;5069251;28;20741;-56
2022/03/02 10:10:27;;;;;;;27.42;15.35;;;;;;;;;;5068137;28;20402;-54
2022/03/02 10:12:58;;;;;;;27.30;17.35;;;12.80;60.60;;;;;;5069102;28;20380;-55
2022/03/02 10:15:25;;;;;;;25.25;17.10;;;13.50;58.90;;;;;;5048955;28;20381;-56
2022/03/02 10:17:52;;;;;;;30.35;19.48;;;13.70;54.40;;;;;;5049169;28;20512;-56
2022/03/02 10:20:21;;;;;;;27.63;19.88;;;13.70;53.10;;;;;;5049163;28;20393;-55
2022/03/02 10:23:23;;;;;;;23.63;17.97;;;13.20;52.40;;;;;;5048611;28;20412;-53
2022/03/02 10:26:15;;;;;;;24.35;19.85;;;12.70;52.30;;;;;;5048973;28;20412;-54
2022/03/02 10:28:47;;;;;;;29.33;18.88;;;11.70;52.80;;;;;;5048135;28;20399;-53
2022/03/02 10:31:15;;;;;;;25.42;19.33;;;11.50;53.40;;;;;;5048874;28;20377;-55
2022/03/02 10:33:55;;;;;;;26.80;19.58;;;10.80;53.70;;;;;;5050983;28;20373;-55
2022/03/02 10:36:25;;;;;;;28.83;19.50;;;10.20;54.10;;;;;;5052653;28;20381;-58
2022/03/02 10:39:00;;;;;;;24.00;17.80;;;9.90;56.60;;;;;;5052887;28;20405;-55
2022/03/02 10:41:28;;;;;;;25.90;17.77;;;9.80;56.90;;;;;;5052310;28;20385;-56
2022/03/02 10:43:56;;;;;;;29.92;17.60;;;9.70;56.60;;;;;;5052907;28;20378;-56
2022/03/02 10:46:23;;;;;;;22.33;16.02;;;9.60;56.70;;;;;;5052303;28;20873;-58
2022/03/02 10:49:17;;;;;;;25.42;17.80;;;9.40;56.60;;;;;;5052572;28;20902;-55
2022/03/02 10:51:49;;;;;;;22.30;16.08;;;9.30;57.20;;;;;;5042383;28;21147;-55
2022/03/02 10:54:18;;;;;;;22.50;15.30;;;9.10;56.90;;;;;;5052756;28;20398;-56
2022/03/02 10:56:45;;;;;;;29.70;17.00;;;9.00;57.20;;;;;;5052261;28;20389;-55
2022/03/02 10:59:17;;;;;;;23.02;17.00;;;8.90;57.80;;;;;;5052663;28;20962;-55
2022/03/02 11:01:47;;;;;;;24.10;15.73;;;8.90;58.10;;;;;;5033918;28;20400;-55
2022/03/02 11:04:13;;;;;;;21.00;15.60;;;8.80;58.20;;;;;;5052178;28;20408;-55
2022/03/02 11:06:39;;;;;;;19.75;15.18;;;9.00;56.70;;;;;;5051990;28;20443;-55
2022/03/02 11:09:05;;;;;;;23.67;15.27;;;8.90;55.50;;;;;;5051882;28;20409;-55
2022/03/02 11:11:38;;;;;;;22.67;16.42;;;8.80;55.70;;;;;;5051335;28;20889;-55
2022/03/02 11:14:04;;;;;;;22.75;15.50;;;9.00;55.90;;;;;;5061987;28;20407;-55
2022/03/02 11:16:31;;;;;;;26.38;16.42;;;9.20;55.70;;;;;;5071675;28;20467;-55
2022/03/02 11:19:18;;;;;;;23.27;16.13;;;9.60;55.50;;;;;;5072405;28;20407;-55
2022/03/02 11:21:44;;;;;;;24.40;18.10;;;9.80;55.10;;;;;;5071216;28;20491;-54
2022/03/02 11:24:17;;;;;;;27.67;18.05;;;9.80;55.30;;;;;;5072132;28;20467;-54
2022/03/02 11:26:43;;;;;;;25.35;17.60;;;9.30;54.40;;;;;;5071461;28;20372;-55
2022/03/02 11:29:17;;;;;;;25.83;17.23;;;10.00;54.70;;;;;;5072167;28;20388;-55
2022/03/02 11:31:51;;;;;;;26.40;18.55;;;10.00;54.30;;;;;;5071354;28;20474;-55
2022/03/02 11:34:21;;;;;;;22.23;16.65;;;10.20;55.00;;;;;;5072221;28;20398;-54
2022/03/02 11:36:51;;;;;;;25.80;16.95;;;10.20;54.10;;;;;;5071924;28;20899;-55
2022/03/02 11:39:21;;;;;;;24.75;15.88;;;10.20;54.50;;;;;;5071810;28;20482;-55
2022/03/02 11:41:51;;;;;;;22.35;15.80;;;10.30;55.90;;;;;;5071629;28;20376;-56
2022/03/02 11:44:37;;;;;;;22.00;16.05;;;10.00;55.70;;;;;;5071768;28;20463;-56
2022/03/02 11:47:04;;;;;;;21.75;15.90;;;10.00;56.40;;;;;;5071986;28;20384;-56
2022/03/02 11:49:40;;;;;;;20.38;15.38;;;10.20;56.10;;;;;;5053056;28;20467;-56
2022/03/02 11:52:09;;;;;;;22.52;16.20;;;10.40;55.70;;;;;;5071902;28;20376;-56
2022/03/02 11:54:53;;;;;;;22.35;15.65;;;10.60;55.80;;;;;;5070966;28;20400;-55
2022/03/02 11:57:22;;;;;;;25.27;16.75;;;10.70;55.10;;;;;;5071528;28;20376;-55
2022/03/02 11:59:50;;;;;;;21.25;15.65;;;10.70;55.00;;;;;;5071317;28;20399;-56
2022/03/02 12:02:19;;;;;;;21.00;15.40;;;10.90;55.40;;;;;;5071659;28;20437;-55
2022/03/02 12:05:02;;;;;;;21.75;16.35;;;10.90;54.40;;;;;;5070634;28;21255;-55
2022/03/02 12:07:46;;;;;;;19.90;16.10;;;10.90;53.80;;;;;;5070732;28;20384;-56
2022/03/02 12:10:32;;;;;;;22.73;16.43;;;10.80;52.70;;;;;;5071405;28;20450;-56
2022/03/02 12:12:58;;;;;;;24.05;16.00;;;10.70;53.00;;;;;;5071219;28;20413;-56
2022/03/02 12:15:26;;;;;;;20.85;16.20;;;10.70;53.20;;;;;;5052957;28;20448;-58
2022/03/02 12:17:53;;;;;;;19.05;15.88;;;11.10;52.80;;;;;;5071350;28;20881;-56
2022/03/02 12:20:24;;;;;;;19.83;16.17;;;11.30;51.80;;;;;;5071218;28;20830;-56
2022/03/02 12:22:53;;;;;;;19.23;15.50;;;11.10;52.20;;;;;;5070633;28;20805;-55
2022/03/02 12:25:24;;;;;;;20.25;14.90;;;10.90;51.70;;;;;;5071324;28;20375;-55
2022/03/02 12:28:05;;;;;;;18.70;15.00;;;10.90;51.90;;;;;;5070555;28;20421;-55
2022/03/02 12:30:33;;;;;;;18.05;14.07;;;10.70;50.80;;;;;;5069929;28;20416;-56
2022/03/02 12:32:59;;;;;;;18.70;14.02;;;10.70;50.40;;;;;;5071367;28;20376;-55
2022/03/02 12:35:27;;;;;;;17.45;13.65;;;10.60;49.60;;;;;;5070187;28;20375;-58
2022/03/02 12:37:59;;;;;;;22.27;13.73;;;10.30;49.10;;;;;;5071104;28;20387;-56